sensor_id;sensor_type;location;lat;lon;timestamp;P1;durP1;ratioP1;P2;durP2;ratioP2
34236;SDS011;20501;45.956;13.632;2023-05-10T00:01:23;3.10;;;2.53;;
34236;SDS011;20501;45.956;13.632;2023-05-10T00:03:49;3.63;;;2.47;;
34236;SDS011;20501;45.956;13.632;2023-05-10T00:06:14;3.25;;;2.50;;
34236;SDS011;20501;45.956;13.632;2023-05-10T00:08:39;3.70;;;2.05;;
34236;SDS011;20501;45.956;13.632;2023-05-10T00:11:05;3.20;;;2.30;;
34236;SDS011;20501;45.956;13.632;2023-05-10T00:13:30;2.88;;;2.38;;
34236;SDS011;20501;45.956;13.632;2023-05-10T00:15:56;4.15;;;2.50;;
34236;SDS011;20501;45.956;13.632;2023-05-10T00:18:22;3.30;;;2.45;;
34236;SDS011;20501;45.956;13.632;2023-05-10T00:20:47;3.28;;;2.25;;
34236;SDS011;20501;45.956;13.632;2023-05-10T00:23:13;4.50;;;2.40;;
34236;SDS011;20501;45.956;13.632;2023-05-10T00:25:39;2.35;;;2.13;;
34236;SDS011;20501;45.956;13.632;2023-05-10T00:28:05;3.75;;;2.10;;
34236;SDS011;20501;45.956;13.632;2023-05-10T00:30:30;3.80;;;2.40;;
34236;SDS011;20501;45.956;13.632;2023-05-10T00:32:56;5.47;;;2.33;;
34236;SDS011;20501;45.956;13.632;2023-05-10T00:35:21;3.03;;;2.17;;
34236;SDS011;20501;45.956;13.632;2023-05-10T00:37:47;4.07;;;2.40;;
34236;SDS011;20501;45.956;13.632;2023-05-10T00:40:13;5.57;;;2.55;;
34236;SDS011;20501;45.956;13.632;2023-05-10T00:42:38;3.17;;;2.38;;
34236;SDS011;20501;45.956;13.632;2023-05-10T00:45:04;2.92;;;2.17;;
34236;SDS011;20501;45.956;13.632;2023-05-10T00:47:30;6.57;;;2.40;;
34236;SDS011;20501;45.956;13.632;2023-05-10T00:49:56;2.80;;;2.40;;
34236;SDS011;20501;45.956;13.632;2023-05-10T00:52:22;3.40;;;2.40;;
34236;SDS011;20501;45.956;13.632;2023-05-10T00:54:49;2.72;;;2.13;;
34236;SDS011;20501;45.956;13.632;2023-05-10T00:57:16;5.43;;;2.70;;
34236;SDS011;20501;45.956;13.632;2023-05-10T00:59:42;4.53;;;2.25;;
34236;SDS011;20501;45.956;13.632;2023-05-10T01:02:07;3.28;;;2.00;;
34236;SDS011;20501;45.956;13.632;2023-05-10T01:04:33;3.13;;;2.00;;
34236;SDS011;20501;45.956;13.632;2023-05-10T01:07:00;2.53;;;2.22;;
34236;SDS011;20501;45.956;13.632;2023-05-10T01:09:26;3.50;;;2.33;;
34236;SDS011;20501;45.956;13.632;2023-05-10T01:11:52;2.63;;;2.05;;
34236;SDS011;20501;45.956;13.632;2023-05-10T01:14:19;4.05;;;2.60;;
34236;SDS011;20501;45.956;13.632;2023-05-10T01:16:45;3.30;;;2.53;;
34236;SDS011;20501;45.956;13.632;2023-05-10T01:19:22;3.40;;;2.38;;
34236;SDS011;20501;45.956;13.632;2023-05-10T01:21:56;5.55;;;2.53;;
34236;SDS011;20501;45.956;13.632;2023-05-10T01:41:36;4.15;;;2.72;;
34236;SDS011;20501;45.956;13.632;2023-05-10T01:46:58;3.17;;;2.47;;
34236;SDS011;20501;45.956;13.632;2023-05-10T01:49:32;2.97;;;2.58;;
34236;SDS011;20501;45.956;13.632;2023-05-10T01:52:06;3.42;;;2.50;;
34236;SDS011;20501;45.956;13.632;2023-05-10T01:54:35;3.05;;;2.58;;
34236;SDS011;20501;45.956;13.632;2023-05-10T01:57:06;3.50;;;2.50;;
34236;SDS011;20501;45.956;13.632;2023-05-10T01:59:35;3.75;;;2.50;;
34236;SDS011;20501;45.956;13.632;2023-05-10T02:02:07;4.05;;;2.40;;
34236;SDS011;20501;45.956;13.632;2023-05-10T02:04:37;6.15;;;2.50;;
34236;SDS011;20501;45.956;13.632;2023-05-10T02:07:07;2.88;;;2.38;;
34236;SDS011;20501;45.956;13.632;2023-05-10T02:09:34;3.47;;;2.92;;
34236;SDS011;20501;45.956;13.632;2023-05-10T02:12:01;4.45;;;2.40;;
34236;SDS011;20501;45.956;13.632;2023-05-10T02:14:30;3.60;;;2.70;;
34236;SDS011;20501;45.956;13.632;2023-05-10T02:16:59;3.65;;;2.80;;
34236;SDS011;20501;45.956;13.632;2023-05-10T02:19:26;6.35;;;2.70;;
34236;SDS011;20501;45.956;13.632;2023-05-10T02:21:53;2.95;;;2.33;;
34236;SDS011;20501;45.956;13.632;2023-05-10T02:24:20;4.30;;;2.38;;
34236;SDS011;20501;45.956;13.632;2023-05-10T02:26:47;4.32;;;2.42;;
34236;SDS011;20501;45.956;13.632;2023-05-10T02:29:16;4.63;;;2.45;;
34236;SDS011;20501;45.956;13.632;2023-05-10T02:31:43;5.47;;;2.75;;
34236;SDS011;20501;45.956;13.632;2023-05-10T02:34:10;3.03;;;2.55;;
34236;SDS011;20501;45.956;13.632;2023-05-10T02:36:37;3.15;;;2.47;;
34236;SDS011;20501;45.956;13.632;2023-05-10T02:39:05;4.00;;;2.20;;
34236;SDS011;20501;45.956;13.632;2023-05-10T02:41:35;4.05;;;2.38;;
34236;SDS011;20501;45.956;13.632;2023-05-10T02:44:02;4.43;;;2.53;;
34236;SDS011;20501;45.956;13.632;2023-05-10T02:46:28;2.97;;;2.50;;
34236;SDS011;20501;45.956;13.632;2023-05-10T02:48:54;3.55;;;2.75;;
34236;SDS011;20501;45.956;13.632;2023-05-10T02:51:20;6.68;;;2.83;;
34236;SDS011;20501;45.956;13.632;2023-05-10T02:53:50;4.07;;;2.75;;
34236;SDS011;20501;45.956;13.632;2023-05-10T02:56:28;2.33;;;2.08;;
34236;SDS011;20501;45.956;13.632;2023-05-10T02:58:58;7.65;;;2.70;;
34236;SDS011;20501;45.956;13.632;2023-05-10T03:01:23;3.22;;;2.60;;
34236;SDS011;20501;45.956;13.632;2023-05-10T03:03:49;3.08;;;2.50;;
34236;SDS011;20501;45.956;13.632;2023-05-10T03:06:14;3.88;;;2.80;;
34236;SDS011;20501;45.956;13.632;2023-05-10T03:08:41;6.60;;;2.60;;
34236;SDS011;20501;45.956;13.632;2023-05-10T03:16:47;4.30;;;2.65;;
34236;SDS011;20501;45.956;13.632;2023-05-10T03:20:06;2.42;;;2.22;;
34236;SDS011;20501;45.956;13.632;2023-05-10T03:22:08;4.35;;;2.90;;
34236;SDS011;20501;45.956;13.632;2023-05-10T03:24:37;3.35;;;2.63;;
34236;SDS011;20501;45.956;13.632;2023-05-10T03:27:06;3.63;;;2.47;;
34236;SDS011;20501;45.956;13.632;2023-05-10T03:31:58;3.25;;;2.53;;
34236;SDS011;20501;45.956;13.632;2023-05-10T03:34:25;4.40;;;2.67;;
34236;SDS011;20501;45.956;13.632;2023-05-10T03:36:51;3.15;;;2.60;;
34236;SDS011;20501;45.956;13.632;2023-05-10T03:39:16;3.97;;;3.00;;
34236;SDS011;20501;45.956;13.632;2023-05-10T03:41:42;4.03;;;2.65;;
34236;SDS011;20501;45.956;13.632;2023-05-10T03:44:07;3.72;;;2.85;;
34236;SDS011;20501;45.956;13.632;2023-05-10T03:46:33;3.70;;;2.92;;
34236;SDS011;20501;45.956;13.632;2023-05-10T03:48:58;3.45;;;2.75;;
34236;SDS011;20501;45.956;13.632;2023-05-10T03:51:24;4.30;;;2.60;;
34236;SDS011;20501;45.956;13.632;2023-05-10T03:53:53;3.30;;;2.80;;
34236;SDS011;20501;45.956;13.632;2023-05-10T03:56:21;3.80;;;2.67;;
34236;SDS011;20501;45.956;13.632;2023-05-10T03:58:46;4.03;;;2.97;;
34236;SDS011;20501;45.956;13.632;2023-05-10T04:01:12;3.53;;;2.67;;
34236;SDS011;20501;45.956;13.632;2023-05-10T04:03:37;3.85;;;2.75;;
34236;SDS011;20501;45.956;13.632;2023-05-10T04:06:03;4.72;;;2.83;;
34236;SDS011;20501;45.956;13.632;2023-05-10T04:08:29;3.75;;;2.70;;
34236;SDS011;20501;45.956;13.632;2023-05-10T04:10:54;6.03;;;2.92;;
34236;SDS011;20501;45.956;13.632;2023-05-10T04:13:20;3.63;;;2.70;;
34236;SDS011;20501;45.956;13.632;2023-05-10T04:15:46;6.53;;;4.50;;
34236;SDS011;20501;45.956;13.632;2023-05-10T04:18:11;3.63;;;2.95;;
34236;SDS011;20501;45.956;13.632;2023-05-10T04:20:36;3.88;;;2.88;;
34236;SDS011;20501;45.956;13.632;2023-05-10T04:23:02;4.25;;;2.90;;
34236;SDS011;20501;45.956;13.632;2023-05-10T04:25:28;5.88;;;3.10;;
34236;SDS011;20501;45.956;13.632;2023-05-10T04:27:53;6.45;;;2.78;;
34236;SDS011;20501;45.956;13.632;2023-05-10T04:30:18;6.32;;;3.45;;
34236;SDS011;20501;45.956;13.632;2023-05-10T04:32:44;6.63;;;3.50;;
34236;SDS011;20501;45.956;13.632;2023-05-10T04:35:09;3.83;;;2.95;;
34236;SDS011;20501;45.956;13.632;2023-05-10T04:37:35;5.72;;;3.20;;
34236;SDS011;20501;45.956;13.632;2023-05-10T04:40:01;4.50;;;3.42;;
34236;SDS011;20501;45.956;13.632;2023-05-10T04:42:28;6.90;;;4.15;;
34236;SDS011;20501;45.956;13.632;2023-05-10T04:44:54;3.55;;;2.72;;
34236;SDS011;20501;45.956;13.632;2023-05-10T04:47:19;5.38;;;3.47;;
34236;SDS011;20501;45.956;13.632;2023-05-10T04:49:45;4.25;;;2.85;;
34236;SDS011;20501;45.956;13.632;2023-05-10T04:52:10;5.03;;;3.25;;
34236;SDS011;20501;45.956;13.632;2023-05-10T04:54:36;4.47;;;3.33;;
34236;SDS011;20501;45.956;13.632;2023-05-10T04:57:02;6.30;;;3.25;;
34236;SDS011;20501;45.956;13.632;2023-05-10T04:59:27;4.30;;;3.38;;
34236;SDS011;20501;45.956;13.632;2023-05-10T05:01:53;4.45;;;3.05;;
34236;SDS011;20501;45.956;13.632;2023-05-10T05:04:18;3.90;;;3.28;;
34236;SDS011;20501;45.956;13.632;2023-05-10T05:06:43;4.55;;;3.33;;
34236;SDS011;20501;45.956;13.632;2023-05-10T05:09:09;4.97;;;3.95;;
34236;SDS011;20501;45.956;13.632;2023-05-10T05:11:35;6.70;;;3.40;;
34236;SDS011;20501;45.956;13.632;2023-05-10T05:14:00;6.30;;;3.60;;
34236;SDS011;20501;45.956;13.632;2023-05-10T05:16:26;6.65;;;3.45;;
34236;SDS011;20501;45.956;13.632;2023-05-10T05:18:51;6.35;;;3.35;;
34236;SDS011;20501;45.956;13.632;2023-05-10T05:21:17;5.75;;;3.75;;
34236;SDS011;20501;45.956;13.632;2023-05-10T05:23:44;7.57;;;3.38;;
34236;SDS011;20501;45.956;13.632;2023-05-10T05:26:10;4.18;;;3.30;;
34236;SDS011;20501;45.956;13.632;2023-05-10T05:28:35;6.00;;;3.63;;
34236;SDS011;20501;45.956;13.632;2023-05-10T05:31:05;7.22;;;3.38;;
34236;SDS011;20501;45.956;13.632;2023-05-10T05:33:32;4.40;;;3.10;;
34236;SDS011;20501;45.956;13.632;2023-05-10T05:36:00;4.18;;;2.97;;
34236;SDS011;20501;45.956;13.632;2023-05-10T05:38:26;7.32;;;3.75;;
34236;SDS011;20501;45.956;13.632;2023-05-10T05:40:51;3.70;;;3.05;;
34236;SDS011;20501;45.956;13.632;2023-05-10T05:43:16;3.40;;;2.92;;
34236;SDS011;20501;45.956;13.632;2023-05-10T05:45:42;7.93;;;3.50;;
34236;SDS011;20501;45.956;13.632;2023-05-10T05:48:07;3.92;;;3.25;;
34236;SDS011;20501;45.956;13.632;2023-05-10T05:50:33;9.38;;;3.53;;
34236;SDS011;20501;45.956;13.632;2023-05-10T05:52:58;4.78;;;3.28;;
34236;SDS011;20501;45.956;13.632;2023-05-10T05:55:23;9.07;;;4.07;;
34236;SDS011;20501;45.956;13.632;2023-05-10T05:57:50;9.32;;;4.32;;
34236;SDS011;20501;45.956;13.632;2023-05-10T06:00:16;7.40;;;3.95;;
34236;SDS011;20501;45.956;13.632;2023-05-10T06:02:42;5.55;;;4.13;;
34236;SDS011;20501;45.956;13.632;2023-05-10T06:05:07;5.65;;;3.50;;
34236;SDS011;20501;45.956;13.632;2023-05-10T06:07:33;7.43;;;4.10;;
34236;SDS011;20501;45.956;13.632;2023-05-10T06:09:59;7.05;;;3.90;;
34236;SDS011;20501;45.956;13.632;2023-05-10T06:12:24;6.80;;;3.45;;
34236;SDS011;20501;45.956;13.632;2023-05-10T06:14:50;5.78;;;3.20;;
34236;SDS011;20501;45.956;13.632;2023-05-10T06:17:15;6.78;;;3.38;;
34236;SDS011;20501;45.956;13.632;2023-05-10T06:19:40;4.93;;;3.00;;
34236;SDS011;20501;45.956;13.632;2023-05-10T06:22:06;5.78;;;3.88;;
34236;SDS011;20501;45.956;13.632;2023-05-10T06:24:31;6.07;;;4.03;;
34236;SDS011;20501;45.956;13.632;2023-05-10T06:26:57;4.93;;;3.40;;
34236;SDS011;20501;45.956;13.632;2023-05-10T06:29:25;5.30;;;3.70;;
34236;SDS011;20501;45.956;13.632;2023-05-10T06:31:50;7.60;;;4.05;;
34236;SDS011;20501;45.956;13.632;2023-05-10T06:34:15;6.68;;;3.85;;
34236;SDS011;20501;45.956;13.632;2023-05-10T06:36:41;4.65;;;3.65;;
34236;SDS011;20501;45.956;13.632;2023-05-10T06:39:06;7.10;;;4.32;;
34236;SDS011;20501;45.956;13.632;2023-05-10T06:41:32;4.70;;;3.90;;
34236;SDS011;20501;45.956;13.632;2023-05-10T06:43:57;8.32;;;3.95;;
34236;SDS011;20501;45.956;13.632;2023-05-10T06:46:23;7.05;;;4.60;;
34236;SDS011;20501;45.956;13.632;2023-05-10T06:48:48;7.57;;;4.30;;
34236;SDS011;20501;45.956;13.632;2023-05-10T06:51:14;8.07;;;4.53;;
34236;SDS011;20501;45.956;13.632;2023-05-10T06:53:39;6.93;;;4.55;;
34236;SDS011;20501;45.956;13.632;2023-05-10T06:56:04;11.80;;;4.70;;
34236;SDS011;20501;45.956;13.632;2023-05-10T06:58:30;9.75;;;4.50;;
34236;SDS011;20501;45.956;13.632;2023-05-10T07:03:29;8.57;;;4.60;;
34236;SDS011;20501;45.956;13.632;2023-05-10T07:05:59;11.63;;;4.40;;
34236;SDS011;20501;45.956;13.632;2023-05-10T07:08:29;7.72;;;4.20;;
34236;SDS011;20501;45.956;13.632;2023-05-10T07:10:59;7.78;;;5.00;;
34236;SDS011;20501;45.956;13.632;2023-05-10T07:13:25;10.38;;;4.78;;
34236;SDS011;20501;45.956;13.632;2023-05-10T07:15:51;7.15;;;4.60;;
34236;SDS011;20501;45.956;13.632;2023-05-10T07:18:16;8.52;;;4.88;;
34236;SDS011;20501;45.956;13.632;2023-05-10T07:20:42;8.25;;;4.63;;
34236;SDS011;20501;45.956;13.632;2023-05-10T07:23:07;7.90;;;5.07;;
34236;SDS011;20501;45.956;13.632;2023-05-10T07:25:33;9.23;;;4.57;;
34236;SDS011;20501;45.956;13.632;2023-05-10T07:27:58;545.25;;;63.42;;
34236;SDS011;20501;45.956;13.632;2023-05-10T07:30:23;236.05;;;27.33;;
34236;SDS011;20501;45.956;13.632;2023-05-10T07:32:49;16.55;;;5.32;;
34236;SDS011;20501;45.956;13.632;2023-05-10T07:35:14;39.90;;;6.90;;
34236;SDS011;20501;45.956;13.632;2023-05-10T07:37:40;10.93;;;4.45;;
34236;SDS011;20501;45.956;13.632;2023-05-10T07:40:05;17.10;;;4.95;;
34236;SDS011;20501;45.956;13.632;2023-05-10T07:42:31;7.87;;;4.50;;
34236;SDS011;20501;45.956;13.632;2023-05-10T07:44:57;7.18;;;4.55;;
34236;SDS011;20501;45.956;13.632;2023-05-10T07:47:22;12.82;;;4.93;;
34236;SDS011;20501;45.956;13.632;2023-05-10T07:49:48;11.73;;;4.88;;
34236;SDS011;20501;45.956;13.632;2023-05-10T07:52:13;9.23;;;4.45;;
34236;SDS011;20501;45.956;13.632;2023-05-10T07:54:39;5.80;;;4.30;;
34236;SDS011;20501;45.956;13.632;2023-05-10T07:57:04;7.22;;;4.90;;
34236;SDS011;20501;45.956;13.632;2023-05-10T07:59:30;10.45;;;4.72;;
34236;SDS011;20501;45.956;13.632;2023-05-10T08:01:55;8.07;;;4.70;;
34236;SDS011;20501;45.956;13.632;2023-05-10T08:04:21;8.70;;;4.65;;
34236;SDS011;20501;45.956;13.632;2023-05-10T08:06:47;9.40;;;4.07;;
34236;SDS011;20501;45.956;13.632;2023-05-10T08:09:12;9.80;;;4.35;;
34236;SDS011;20501;45.956;13.632;2023-05-10T08:11:38;5.63;;;4.38;;
34236;SDS011;20501;45.956;13.632;2023-05-10T08:14:03;6.45;;;3.58;;
34236;SDS011;20501;45.956;13.632;2023-05-10T08:16:29;9.35;;;3.67;;
34236;SDS011;20501;45.956;13.632;2023-05-10T08:18:54;7.18;;;4.40;;
34236;SDS011;20501;45.956;13.632;2023-05-10T08:21:20;6.72;;;4.22;;
34236;SDS011;20501;45.956;13.632;2023-05-10T08:23:45;11.50;;;4.50;;
34236;SDS011;20501;45.956;13.632;2023-05-10T08:26:11;9.63;;;4.47;;
34236;SDS011;20501;45.956;13.632;2023-05-10T08:28:37;5.53;;;3.92;;
34236;SDS011;20501;45.956;13.632;2023-05-10T08:31:02;6.80;;;3.78;;
34236;SDS011;20501;45.956;13.632;2023-05-10T08:33:27;10.15;;;4.50;;
34236;SDS011;20501;45.956;13.632;2023-05-10T08:35:53;11.15;;;4.30;;
34236;SDS011;20501;45.956;13.632;2023-05-10T08:38:18;8.13;;;4.97;;
34236;SDS011;20501;45.956;13.632;2023-05-10T08:40:44;10.63;;;5.28;;
34236;SDS011;20501;45.956;13.632;2023-05-10T08:43:11;8.05;;;5.85;;
34236;SDS011;20501;45.956;13.632;2023-05-10T08:45:40;8.50;;;5.60;;
34236;SDS011;20501;45.956;13.632;2023-05-10T08:48:10;10.45;;;6.00;;
34236;SDS011;20501;45.956;13.632;2023-05-10T08:50:36;9.68;;;6.53;;
34236;SDS011;20501;45.956;13.632;2023-05-10T08:55:34;10.65;;;6.72;;
34236;SDS011;20501;45.956;13.632;2023-05-10T08:58:01;9.30;;;6.22;;
34236;SDS011;20501;45.956;13.632;2023-05-10T09:00:27;8.15;;;5.47;;
34236;SDS011;20501;45.956;13.632;2023-05-10T09:02:53;8.50;;;5.85;;
34236;SDS011;20501;45.956;13.632;2023-05-10T09:05:19;9.85;;;6.50;;
34236;SDS011;20501;45.956;13.632;2023-05-10T09:07:44;9.90;;;6.13;;
34236;SDS011;20501;45.956;13.632;2023-05-10T09:10:10;10.32;;;7.05;;
34236;SDS011;20501;45.956;13.632;2023-05-10T09:12:36;9.52;;;5.40;;
34236;SDS011;20501;45.956;13.632;2023-05-10T09:15:02;10.88;;;6.22;;
34236;SDS011;20501;45.956;13.632;2023-05-10T09:17:30;10.43;;;6.18;;
34236;SDS011;20501;45.956;13.632;2023-05-10T09:20:02;10.23;;;7.60;;
34236;SDS011;20501;45.956;13.632;2023-05-10T09:22:31;14.55;;;7.78;;
34236;SDS011;20501;45.956;13.632;2023-05-10T09:25:08;8.32;;;5.75;;
34236;SDS011;20501;45.956;13.632;2023-05-10T09:27:38;10.82;;;6.15;;
34236;SDS011;20501;45.956;13.632;2023-05-10T09:30:05;8.57;;;5.90;;
34236;SDS011;20501;45.956;13.632;2023-05-10T09:35:09;7.70;;;4.95;;
34236;SDS011;20501;45.956;13.632;2023-05-10T09:37:36;7.88;;;5.30;;
34236;SDS011;20501;45.956;13.632;2023-05-10T09:40:05;7.13;;;4.43;;
34236;SDS011;20501;45.956;13.632;2023-05-10T09:42:32;7.90;;;5.95;;
34236;SDS011;20501;45.956;13.632;2023-05-10T09:45:07;11.32;;;6.93;;
34236;SDS011;20501;45.956;13.632;2023-05-10T09:47:36;11.60;;;6.82;;
34236;SDS011;20501;45.956;13.632;2023-05-10T09:50:02;12.73;;;6.40;;
34236;SDS011;20501;45.956;13.632;2023-05-10T09:52:51;6.63;;;4.57;;
34236;SDS011;20501;45.956;13.632;2023-05-10T09:55:19;8.95;;;5.00;;
34236;SDS011;20501;45.956;13.632;2023-05-10T09:57:49;10.45;;;5.53;;
34236;SDS011;20501;45.956;13.632;2023-05-10T10:00:23;7.30;;;4.35;;
34236;SDS011;20501;45.956;13.632;2023-05-10T10:02:55;8.52;;;5.78;;
34236;SDS011;20501;45.956;13.632;2023-05-10T10:05:28;15.35;;;6.53;;
34236;SDS011;20501;45.956;13.632;2023-05-10T10:07:58;9.73;;;6.68;;
34236;SDS011;20501;45.956;13.632;2023-05-10T10:10:24;10.80;;;6.83;;
34236;SDS011;20501;45.956;13.632;2023-05-10T10:12:51;9.32;;;6.50;;
34236;SDS011;20501;45.956;13.632;2023-05-10T10:15:16;9.65;;;6.82;;
34236;SDS011;20501;45.956;13.632;2023-05-10T10:17:43;12.57;;;7.22;;
34236;SDS011;20501;45.956;13.632;2023-05-10T10:20:09;7.45;;;5.43;;
34236;SDS011;20501;45.956;13.632;2023-05-10T10:22:36;8.38;;;5.85;;
34236;SDS011;20501;45.956;13.632;2023-05-10T10:25:02;10.18;;;6.85;;
34236;SDS011;20501;45.956;13.632;2023-05-10T10:35:29;8.52;;;5.80;;
34236;SDS011;20501;45.956;13.632;2023-05-10T10:37:55;14.35;;;8.02;;
34236;SDS011;20501;45.956;13.632;2023-05-10T10:42:51;12.30;;;8.02;;
34236;SDS011;20501;45.956;13.632;2023-05-10T10:47:44;10.43;;;6.90;;
34236;SDS011;20501;45.956;13.632;2023-05-10T10:50:10;7.97;;;5.65;;
34236;SDS011;20501;45.956;13.632;2023-05-10T10:52:38;7.22;;;5.05;;
34236;SDS011;20501;45.956;13.632;2023-05-10T10:55:12;11.75;;;8.07;;
34236;SDS011;20501;45.956;13.632;2023-05-10T10:57:48;11.05;;;6.35;;
34236;SDS011;20501;45.956;13.632;2023-05-10T11:02:50;10.82;;;8.02;;
34236;SDS011;20501;45.956;13.632;2023-05-10T11:10:36;12.30;;;8.27;;
34236;SDS011;20501;45.956;13.632;2023-05-10T11:13:03;11.20;;;7.50;;
34236;SDS011;20501;45.956;13.632;2023-05-10T11:15:33;12.68;;;8.15;;
34236;SDS011;20501;45.956;13.632;2023-05-10T11:18:00;14.95;;;8.68;;
34236;SDS011;20501;45.956;13.632;2023-05-10T11:20:49;10.98;;;7.85;;
34236;SDS011;20501;45.956;13.632;2023-05-10T11:23:20;10.30;;;7.57;;
34236;SDS011;20501;45.956;13.632;2023-05-10T11:25:46;9.60;;;6.15;;
34236;SDS011;20501;45.956;13.632;2023-05-10T11:30:39;13.13;;;9.32;;
34236;SDS011;20501;45.956;13.632;2023-05-10T11:33:06;14.38;;;9.55;;
34236;SDS011;20501;45.956;13.632;2023-05-10T11:35:36;14.55;;;9.35;;
34236;SDS011;20501;45.956;13.632;2023-05-10T11:38:09;12.07;;;8.70;;
34236;SDS011;20501;45.956;13.632;2023-05-10T11:40:35;16.05;;;9.75;;
34236;SDS011;20501;45.956;13.632;2023-05-10T11:43:02;15.68;;;9.27;;
34236;SDS011;20501;45.956;13.632;2023-05-10T11:45:28;12.45;;;7.45;;
34236;SDS011;20501;45.956;13.632;2023-05-10T11:47:55;14.98;;;9.68;;
34236;SDS011;20501;45.956;13.632;2023-05-10T11:50:21;12.98;;;9.63;;
34236;SDS011;20501;45.956;13.632;2023-05-10T11:52:53;14.07;;;9.35;;
34236;SDS011;20501;45.956;13.632;2023-05-10T11:55:20;11.60;;;8.52;;
34236;SDS011;20501;45.956;13.632;2023-05-10T11:57:47;15.00;;;9.48;;
34236;SDS011;20501;45.956;13.632;2023-05-10T12:00:13;12.32;;;8.73;;
34236;SDS011;20501;45.956;13.632;2023-05-10T12:02:39;19.63;;;10.77;;
34236;SDS011;20501;45.956;13.632;2023-05-10T12:05:05;14.57;;;10.82;;
34236;SDS011;20501;45.956;13.632;2023-05-10T12:07:31;15.88;;;11.18;;
34236;SDS011;20501;45.956;13.632;2023-05-10T12:10:06;14.13;;;9.65;;
34236;SDS011;20501;45.956;13.632;2023-05-10T12:12:37;15.20;;;9.52;;
34236;SDS011;20501;45.956;13.632;2023-05-10T12:15:04;14.63;;;9.60;;
34236;SDS011;20501;45.956;13.632;2023-05-10T12:17:31;9.77;;;6.82;;
34236;SDS011;20501;45.956;13.632;2023-05-10T12:20:12;8.48;;;6.20;;
34236;SDS011;20501;45.956;13.632;2023-05-10T12:22:39;14.52;;;9.95;;
34236;SDS011;20501;45.956;13.632;2023-05-10T12:25:05;16.92;;;11.65;;
34236;SDS011;20501;45.956;13.632;2023-05-10T12:27:32;17.95;;;11.20;;
34236;SDS011;20501;45.956;13.632;2023-05-10T12:30:02;18.77;;;11.60;;
34236;SDS011;20501;45.956;13.632;2023-05-10T12:32:37;16.27;;;12.38;;
34236;SDS011;20501;45.956;13.632;2023-05-10T12:35:03;16.77;;;11.70;;
34236;SDS011;20501;45.956;13.632;2023-05-10T12:37:29;19.05;;;12.05;;
34236;SDS011;20501;45.956;13.632;2023-05-10T12:39:54;25.17;;;14.15;;
34236;SDS011;20501;45.956;13.632;2023-05-10T12:42:20;19.63;;;13.23;;
34236;SDS011;20501;45.956;13.632;2023-05-10T12:44:45;20.02;;;11.63;;
34236;SDS011;20501;45.956;13.632;2023-05-10T12:47:11;20.73;;;12.85;;
34236;SDS011;20501;45.956;13.632;2023-05-10T12:49:36;15.82;;;10.70;;
34236;SDS011;20501;45.956;13.632;2023-05-10T12:52:02;21.92;;;14.43;;
34236;SDS011;20501;45.956;13.632;2023-05-10T12:54:27;17.88;;;9.00;;
34236;SDS011;20501;45.956;13.632;2023-05-10T12:56:52;14.57;;;9.48;;
34236;SDS011;20501;45.956;13.632;2023-05-10T12:59:18;16.10;;;11.13;;
34236;SDS011;20501;45.956;13.632;2023-05-10T13:01:43;19.58;;;13.13;;
34236;SDS011;20501;45.956;13.632;2023-05-10T13:04:09;17.00;;;12.63;;
34236;SDS011;20501;45.956;13.632;2023-05-10T13:06:34;15.82;;;9.68;;
34236;SDS011;20501;45.956;13.632;2023-05-10T13:09:00;12.30;;;9.07;;
34236;SDS011;20501;45.956;13.632;2023-05-10T13:11:25;17.85;;;13.77;;
34236;SDS011;20501;45.956;13.632;2023-05-10T13:13:51;19.60;;;13.73;;
34236;SDS011;20501;45.956;13.632;2023-05-10T13:16:16;22.95;;;14.18;;
34236;SDS011;20501;45.956;13.632;2023-05-10T13:18:42;19.65;;;14.32;;
34236;SDS011;20501;45.956;13.632;2023-05-10T13:21:07;17.33;;;13.02;;
34236;SDS011;20501;45.956;13.632;2023-05-10T13:23:33;19.73;;;14.20;;
34236;SDS011;20501;45.956;13.632;2023-05-10T13:25:59;22.25;;;14.85;;
34236;SDS011;20501;45.956;13.632;2023-05-10T13:28:24;21.13;;;15.73;;
34236;SDS011;20501;45.956;13.632;2023-05-10T13:30:51;23.25;;;15.15;;
34236;SDS011;20501;45.956;13.632;2023-05-10T13:33:16;27.27;;;16.92;;
34236;SDS011;20501;45.956;13.632;2023-05-10T13:35:42;19.40;;;13.25;;
34236;SDS011;20501;45.956;13.632;2023-05-10T13:38:07;20.20;;;13.75;;
34236;SDS011;20501;45.956;13.632;2023-05-10T13:40:33;15.90;;;10.35;;
34236;SDS011;20501;45.956;13.632;2023-05-10T13:42:59;20.20;;;14.27;;
34236;SDS011;20501;45.956;13.632;2023-05-10T13:45:24;22.42;;;14.60;;
34236;SDS011;20501;45.956;13.632;2023-05-10T13:47:49;18.88;;;14.25;;
34236;SDS011;20501;45.956;13.632;2023-05-10T13:50:15;25.13;;;16.63;;
34236;SDS011;20501;45.956;13.632;2023-05-10T13:52:40;24.23;;;16.10;;
34236;SDS011;20501;45.956;13.632;2023-05-10T13:55:06;22.02;;;16.52;;
34236;SDS011;20501;45.956;13.632;2023-05-10T13:57:32;25.17;;;17.45;;
34236;SDS011;20501;45.956;13.632;2023-05-10T13:59:59;24.52;;;16.13;;
34236;SDS011;20501;45.956;13.632;2023-05-10T14:02:24;22.27;;;16.30;;
34236;SDS011;20501;45.956;13.632;2023-05-10T14:04:52;29.10;;;17.10;;
34236;SDS011;20501;45.956;13.632;2023-05-10T14:07:17;22.10;;;14.23;;
34236;SDS011;20501;45.956;13.632;2023-05-10T14:09:43;19.13;;;13.85;;
34236;SDS011;20501;45.956;13.632;2023-05-10T14:12:08;18.50;;;13.50;;
34236;SDS011;20501;45.956;13.632;2023-05-10T14:14:34;22.50;;;15.02;;
34236;SDS011;20501;45.956;13.632;2023-05-10T14:16:59;19.20;;;13.60;;
34236;SDS011;20501;45.956;13.632;2023-05-10T14:19:25;21.80;;;14.38;;
34236;SDS011;20501;45.956;13.632;2023-05-10T14:21:51;22.45;;;15.68;;
34236;SDS011;20501;45.956;13.632;2023-05-10T14:24:17;18.48;;;13.43;;
34236;SDS011;20501;45.956;13.632;2023-05-10T14:26:42;21.05;;;14.48;;
34236;SDS011;20501;45.956;13.632;2023-05-10T14:29:08;22.98;;;14.32;;
34236;SDS011;20501;45.956;13.632;2023-05-10T14:31:33;19.20;;;14.00;;
34236;SDS011;20501;45.956;13.632;2023-05-10T14:33:59;20.27;;;13.88;;
34236;SDS011;20501;45.956;13.632;2023-05-10T14:36:24;15.35;;;11.38;;
34236;SDS011;20501;45.956;13.632;2023-05-10T14:38:49;21.08;;;13.95;;
34236;SDS011;20501;45.956;13.632;2023-05-10T14:41:15;12.25;;;9.48;;
34236;SDS011;20501;45.956;13.632;2023-05-10T14:43:42;15.57;;;11.98;;
34236;SDS011;20501;45.956;13.632;2023-05-10T14:46:08;17.48;;;12.15;;
34236;SDS011;20501;45.956;13.632;2023-05-10T14:48:33;13.65;;;10.18;;
34236;SDS011;20501;45.956;13.632;2023-05-10T14:50:59;14.27;;;9.70;;
34236;SDS011;20501;45.956;13.632;2023-05-10T14:53:24;18.08;;;12.52;;
34236;SDS011;20501;45.956;13.632;2023-05-10T14:55:50;16.05;;;11.35;;
34236;SDS011;20501;45.956;13.632;2023-05-10T14:58:15;14.60;;;10.15;;
34236;SDS011;20501;45.956;13.632;2023-05-10T15:00:41;14.40;;;9.70;;
34236;SDS011;20501;45.956;13.632;2023-05-10T15:03:07;13.57;;;10.73;;
34236;SDS011;20501;45.956;13.632;2023-05-10T15:05:32;15.88;;;10.38;;
34236;SDS011;20501;45.956;13.632;2023-05-10T15:07:58;13.80;;;10.98;;
34236;SDS011;20501;45.956;13.632;2023-05-10T15:10:23;15.35;;;11.55;;
34236;SDS011;20501;45.956;13.632;2023-05-10T15:12:49;18.27;;;11.52;;
34236;SDS011;20501;45.956;13.632;2023-05-10T15:15:15;13.73;;;10.77;;
34236;SDS011;20501;45.956;13.632;2023-05-10T15:17:40;13.75;;;10.05;;
34236;SDS011;20501;45.956;13.632;2023-05-10T15:20:06;17.48;;;10.90;;
34236;SDS011;20501;45.956;13.632;2023-05-10T15:22:32;16.40;;;11.20;;